sensor_id;sensor_type;location;lat;lon;timestamp;temperature;humidity
11540;DHT22;5826;54.756;9.192;2023-02-28T00:00:23;4.80;99.90
11540;DHT22;5826;54.756;9.192;2023-02-28T00:02:49;4.80;99.90
11540;DHT22;5826;54.756;9.192;2023-02-28T00:05:17;4.70;99.90
11540;DHT22;5826;54.756;9.192;2023-02-28T00:07:43;4.70;99.90
11540;DHT22;5826;54.756;9.192;2023-02-28T00:10:11;4.70;99.90
11540;DHT22;5826;54.756;9.192;2023-02-28T00:12:37;4.60;99.90
11540;DHT22;5826;54.756;9.192;2023-02-28T00:15:06;4.60;99.90
11540;DHT22;5826;54.756;9.192;2023-02-28T00:17:32;4.50;99.90
11540;DHT22;5826;54.756;9.192;2023-02-28T00:19:58;4.50;99.90
11540;DHT22;5826;54.756;9.192;2023-02-28T00:22:36;4.50;99.90
11540;DHT22;5826;54.756;9.192;2023-02-28T00:25:01;4.40;99.90
11540;DHT22;5826;54.756;9.192;2023-02-28T00:27:27;4.50;99.90
11540;DHT22;5826;54.756;9.192;2023-02-28T00:29:52;4.40;99.90
11540;DHT22;5826;54.756;9.192;2023-02-28T00:32:19;4.40;99.90
11540;DHT22;5826;54.756;9.192;2023-02-28T00:34:44;4.40;99.90
11540;DHT22;5826;54.756;9.192;2023-02-28T00:37:11;4.40;99.90
11540;DHT22;5826;54.756;9.192;2023-02-28T00:39:39;4.30;99.90
11540;DHT22;5826;54.756;9.192;2023-02-28T00:42:06;4.50;99.90
11540;DHT22;5826;54.756;9.192;2023-02-28T00:44:32;4.40;99.90
11540;DHT22;5826;54.756;9.192;2023-02-28T00:46:58;4.30;99.90
11540;DHT22;5826;54.756;9.192;2023-02-28T00:49:25;4.30;99.90
11540;DHT22;5826;54.756;9.192;2023-02-28T00:51:51;4.40;99.90
11540;DHT22;5826;54.756;9.192;2023-02-28T00:54:17;4.40;99.90
11540;DHT22;5826;54.756;9.192;2023-02-28T00:56:43;4.40;99.90
11540;DHT22;5826;54.756;9.192;2023-02-28T00:59:08;4.40;99.90
11540;DHT22;5826;54.756;9.192;2023-02-28T01:01:34;4.40;99.90
11540;DHT22;5826;54.756;9.192;2023-02-28T01:04:00;4.50;99.90
11540;DHT22;5826;54.756;9.192;2023-02-28T01:06:25;4.50;99.90
11540;DHT22;5826;54.756;9.192;2023-02-28T01:08:51;4.50;99.90
11540;DHT22;5826;54.756;9.192;2023-02-28T01:11:17;4.50;99.90
11540;DHT22;5826;54.756;9.192;2023-02-28T01:13:44;4.60;99.90
11540;DHT22;5826;54.756;9.192;2023-02-28T01:16:10;4.60;99.90
11540;DHT22;5826;54.756;9.192;2023-02-28T01:18:37;4.70;99.90
11540;DHT22;5826;54.756;9.192;2023-02-28T01:21:08;4.60;99.90
11540;DHT22;5826;54.756;9.192;2023-02-28T01:23:33;4.70;99.90
11540;DHT22;5826;54.756;9.192;2023-02-28T01:26:14;4.70;99.90
11540;DHT22;5826;54.756;9.192;2023-02-28T01:28:40;4.80;99.90
11540;DHT22;5826;54.756;9.192;2023-02-28T01:31:06;4.80;99.90
11540;DHT22;5826;54.756;9.192;2023-02-28T01:33:32;4.80;99.90
11540;DHT22;5826;54.756;9.192;2023-02-28T01:35:59;4.90;99.90
11540;DHT22;5826;54.756;9.192;2023-02-28T01:38:25;4.80;99.90
11540;DHT22;5826;54.756;9.192;2023-02-28T01:40:51;4.80;99.90
11540;DHT22;5826;54.756;9.192;2023-02-28T01:43:30;4.80;99.90
11540;DHT22;5826;54.756;9.192;2023-02-28T01:45:57;4.80;99.90
11540;DHT22;5826;54.756;9.192;2023-02-28T01:48:31;4.70;99.90
11540;DHT22;5826;54.756;9.192;2023-02-28T01:51:01;4.70;99.90
11540;DHT22;5826;54.756;9.192;2023-02-28T01:53:33;4.70;99.90
11540;DHT22;5826;54.756;9.192;2023-02-28T01:56:00;4.70;99.90
11540;DHT22;5826;54.756;9.192;2023-02-28T01:58:25;4.60;99.90
11540;DHT22;5826;54.756;9.192;2023-02-28T02:00:51;4.60;99.90
11540;DHT22;5826;54.756;9.192;2023-02-28T02:03:18;4.50;99.90
11540;DHT22;5826;54.756;9.192;2023-02-28T02:05:45;4.50;99.90
11540;DHT22;5826;54.756;9.192;2023-02-28T02:08:18;4.40;99.90
11540;DHT22;5826;54.756;9.192;2023-02-28T02:10:48;4.40;99.90
11540;DHT22;5826;54.756;9.192;2023-02-28T02:21:33;4.20;99.90
11540;DHT22;5826;54.756;9.192;2023-02-28T02:24:27;4.20;99.90
11540;DHT22;5826;54.756;9.192;2023-02-28T02:32:58;4.20;99.90
11540;DHT22;5826;54.756;9.192;2023-02-28T02:41:20;4.00;99.90
11540;DHT22;5826;54.756;9.192;2023-02-28T02:46:55;4.00;99.90
11540;DHT22;5826;54.756;9.192;2023-02-28T02:49:28;3.90;99.90
11540;DHT22;5826;54.756;9.192;2023-02-28T02:51:58;3.90;99.90
11540;DHT22;5826;54.756;9.192;2023-02-28T02:54:38;3.80;99.90
11540;DHT22;5826;54.756;9.192;2023-02-28T02:57:10;3.80;99.90
11540;DHT22;5826;54.756;9.192;2023-02-28T02:59:39;3.70;99.90
11540;DHT22;5826;54.756;9.192;2023-02-28T03:02:07;3.60;99.90
11540;DHT22;5826;54.756;9.192;2023-02-28T03:04:42;3.80;99.90
11540;DHT22;5826;54.756;9.192;2023-02-28T03:07:08;3.60;99.90
11540;DHT22;5826;54.756;9.192;2023-02-28T03:09:34;3.50;99.90
11540;DHT22;5826;54.756;9.192;2023-02-28T03:12:02;3.50;99.90
11540;DHT22;5826;54.756;9.192;2023-02-28T03:17:40;3.50;99.90
11540;DHT22;5826;54.756;9.192;2023-02-28T03:28:03;3.30;99.90
11540;DHT22;5826;54.756;9.192;2023-02-28T03:30:41;3.30;99.90
11540;DHT22;5826;54.756;9.192;2023-02-28T03:33:18;3.30;99.90
11540;DHT22;5826;54.756;9.192;2023-02-28T03:35:52;3.30;99.90
11540;DHT22;5826;54.756;9.192;2023-02-28T03:38:30;3.80;99.90
11540;DHT22;5826;54.756;9.192;2023-02-28T03:41:06;3.20;99.90
11540;DHT22;5826;54.756;9.192;2023-02-28T03:43:35;3.20;99.90
11540;DHT22;5826;54.756;9.192;2023-02-28T03:46:07;3.20;99.90
11540;DHT22;5826;54.756;9.192;2023-02-28T03:48:45;3.10;99.90
11540;DHT22;5826;54.756;9.192;2023-02-28T03:51:16;3.10;99.90
11540;DHT22;5826;54.756;9.192;2023-02-28T03:53:52;3.10;99.90
11540;DHT22;5826;54.756;9.192;2023-02-28T03:56:27;3.10;99.90
11540;DHT22;5826;54.756;9.192;2023-02-28T03:59:47;3.00;99.90
11540;DHT22;5826;54.756;9.192;2023-02-28T04:01:53;3.00;99.90
11540;DHT22;5826;54.756;9.192;2023-02-28T04:04:20;3.20;99.90
11540;DHT22;5826;54.756;9.192;2023-02-28T04:06:50;2.90;99.90
11540;DHT22;5826;54.756;9.192;2023-02-28T04:09:16;2.90;99.90
11540;DHT22;5826;54.756;9.192;2023-02-28T04:11:46;3.50;99.90
11540;DHT22;5826;54.756;9.192;2023-02-28T04:14:14;2.90;99.90
11540;DHT22;5826;54.756;9.192;2023-02-28T04:16:41;2.90;99.90
11540;DHT22;5826;54.756;9.192;2023-02-28T04:19:08;2.90;99.90
11540;DHT22;5826;54.756;9.192;2023-02-28T04:21:40;2.90;99.90
11540;DHT22;5826;54.756;9.192;2023-02-28T04:24:08;2.90;99.90
11540;DHT22;5826;54.756;9.192;2023-02-28T04:26:35;2.80;99.90
11540;DHT22;5826;54.756;9.192;2023-02-28T04:29:05;2.80;99.90
11540;DHT22;5826;54.756;9.192;2023-02-28T04:31:31;2.80;99.90
11540;DHT22;5826;54.756;9.192;2023-02-28T04:33:57;3.00;99.90
11540;DHT22;5826;54.756;9.192;2023-02-28T04:36:22;2.70;99.90
11540;DHT22;5826;54.756;9.192;2023-02-28T04:38:48;2.70;99.90
11540;DHT22;5826;54.756;9.192;2023-02-28T04:41:14;2.70;99.90
11540;DHT22;5826;54.756;9.192;2023-02-28T04:43:40;2.70;99.90
11540;DHT22;5826;54.756;9.192;2023-02-28T04:46:06;2.70;99.90
11540;DHT22;5826;54.756;9.192;2023-02-28T04:48:35;2.70;99.90
11540;DHT22;5826;54.756;9.192;2023-02-28T04:51:02;2.60;99.90
11540;DHT22;5826;54.756;9.192;2023-02-28T04:53:28;2.70;99.90
11540;DHT22;5826;54.756;9.192;2023-02-28T04:55:55;3.00;99.90
11540;DHT22;5826;54.756;9.192;2023-02-28T04:58:21;2.60;99.90
11540;DHT22;5826;54.756;9.192;2023-02-28T05:00:48;2.60;99.90
11540;DHT22;5826;54.756;9.192;2023-02-28T05:03:14;2.80;99.90
11540;DHT22;5826;54.756;9.192;2023-02-28T05:05:39;2.60;99.90
11540;DHT22;5826;54.756;9.192;2023-02-28T05:08:05;2.60;99.90
11540;DHT22;5826;54.756;9.192;2023-02-28T05:10:31;2.50;99.90
11540;DHT22;5826;54.756;9.192;2023-02-28T05:12:57;2.50;99.90
11540;DHT22;5826;54.756;9.192;2023-02-28T05:15:23;2.50;99.90
11540;DHT22;5826;54.756;9.192;2023-02-28T05:17:48;2.50;99.90
11540;DHT22;5826;54.756;9.192;2023-02-28T05:20:14;3.20;99.90
11540;DHT22;5826;54.756;9.192;2023-02-28T05:22:40;2.60;99.90
11540;DHT22;5826;54.756;9.192;2023-02-28T05:25:18;2.50;99.90
11540;DHT22;5826;54.756;9.192;2023-02-28T05:27:44;2.50;99.90
11540;DHT22;5826;54.756;9.192;2023-02-28T05:30:10;2.50;99.90
11540;DHT22;5826;54.756;9.192;2023-02-28T05:32:37;2.50;99.90
11540;DHT22;5826;54.756;9.192;2023-02-28T05:35:03;2.40;99.90
11540;DHT22;5826;54.756;9.192;2023-02-28T05:37:29;2.40;99.90
11540;DHT22;5826;54.756;9.192;2023-02-28T05:39:54;2.40;99.90
11540;DHT22;5826;54.756;9.192;2023-02-28T05:42:20;2.40;99.90
11540;DHT22;5826;54.756;9.192;2023-02-28T05:44:46;2.40;99.90
11540;DHT22;5826;54.756;9.192;2023-02-28T05:47:11;2.40;99.90
11540;DHT22;5826;54.756;9.192;2023-02-28T05:49:41;2.40;99.90
11540;DHT22;5826;54.756;9.192;2023-02-28T05:52:06;2.40;99.90
11540;DHT22;5826;54.756;9.192;2023-02-28T05:54:32;2.30;99.90
11540;DHT22;5826;54.756;9.192;2023-02-28T05:56:57;2.30;99.90
11540;DHT22;5826;54.756;9.192;2023-02-28T05:59:23;2.30;99.90
11540;DHT22;5826;54.756;9.192;2023-02-28T06:01:48;2.30;99.90
11540;DHT22;5826;54.756;9.192;2023-02-28T06:04:16;2.30;99.90
11540;DHT22;5826;54.756;9.192;2023-02-28T06:06:46;2.30;99.90
11540;DHT22;5826;54.756;9.192;2023-02-28T06:09:11;2.30;99.90
11540;DHT22;5826;54.756;9.192;2023-02-28T06:11:37;2.30;99.90
11540;DHT22;5826;54.756;9.192;2023-02-28T06:14:04;2.30;99.90
11540;DHT22;5826;54.756;9.192;2023-02-28T06:16:31;2.20;99.90
11540;DHT22;5826;54.756;9.192;2023-02-28T06:18:58;2.60;99.90
11540;DHT22;5826;54.756;9.192;2023-02-28T06:21:24;2.60;99.90
11540;DHT22;5826;54.756;9.192;2023-02-28T06:23:50;2.20;99.90
11540;DHT22;5826;54.756;9.192;2023-02-28T06:26:15;2.30;99.90
11540;DHT22;5826;54.756;9.192;2023-02-28T06:28:41;2.20;99.90
11540;DHT22;5826;54.756;9.192;2023-02-28T06:31:11;2.70;99.90
11540;DHT22;5826;54.756;9.192;2023-02-28T06:33:38;2.20;99.90
11540;DHT22;5826;54.756;9.192;2023-02-28T06:36:05;2.20;99.90
11540;DHT22;5826;54.756;9.192;2023-02-28T06:38:31;2.20;99.90
11540;DHT22;5826;54.756;9.192;2023-02-28T06:40:58;2.20;99.90
11540;DHT22;5826;54.756;9.192;2023-02-28T06:43:25;2.30;99.90
11540;DHT22;5826;54.756;9.192;2023-02-28T06:45:54;2.30;99.90
11540;DHT22;5826;54.756;9.192;2023-02-28T06:48:20;2.30;99.90
11540;DHT22;5826;54.756;9.192;2023-02-28T06:50:46;2.30;99.90
11540;DHT22;5826;54.756;9.192;2023-02-28T06:53:12;2.40;99.90
11540;DHT22;5826;54.756;9.192;2023-02-28T06:55:38;2.40;99.90
11540;DHT22;5826;54.756;9.192;2023-02-28T06:58:04;2.40;99.90
11540;DHT22;5826;54.756;9.192;2023-02-28T07:00:42;2.50;99.90
11540;DHT22;5826;54.756;9.192;2023-02-28T07:03:09;2.50;99.90
11540;DHT22;5826;54.756;9.192;2023-02-28T07:05:36;2.50;99.90
11540;DHT22;5826;54.756;9.192;2023-02-28T07:08:03;2.60;99.90
11540;DHT22;5826;54.756;9.192;2023-02-28T07:10:29;2.90;99.90
11540;DHT22;5826;54.756;9.192;2023-02-28T07:12:55;2.70;99.90
11540;DHT22;5826;54.756;9.192;2023-02-28T07:15:20;2.70;99.90
11540;DHT22;5826;54.756;9.192;2023-02-28T07:17:46;2.70;99.90
11540;DHT22;5826;54.756;9.192;2023-02-28T07:20:12;2.90;99.90
11540;DHT22;5826;54.756;9.192;2023-02-28T07:22:37;2.80;99.90
11540;DHT22;5826;54.756;9.192;2023-02-28T07:25:04;2.90;99.90
11540;DHT22;5826;54.756;9.192;2023-02-28T07:27:30;2.90;99.90
11540;DHT22;5826;54.756;9.192;2023-02-28T07:29:56;3.00;99.90
11540;DHT22;5826;54.756;9.192;2023-02-28T07:32:21;3.00;99.90
11540;DHT22;5826;54.756;9.192;2023-02-28T07:34:47;3.20;99.90
11540;DHT22;5826;54.756;9.192;2023-02-28T07:37:14;3.20;99.90
11540;DHT22;5826;54.756;9.192;2023-02-28T07:39:39;3.30;99.90
11540;DHT22;5826;54.756;9.192;2023-02-28T07:42:07;3.30;99.90
11540;DHT22;5826;54.756;9.192;2023-02-28T07:44:35;3.40;99.90
11540;DHT22;5826;54.756;9.192;2023-02-28T07:47:08;3.30;99.90
11540;DHT22;5826;54.756;9.192;2023-02-28T07:49:37;3.40;99.90
11540;DHT22;5826;54.756;9.192;2023-02-28T07:52:04;3.30;99.90
11540;DHT22;5826;54.756;9.192;2023-02-28T07:54:30;3.30;99.90
11540;DHT22;5826;54.756;9.192;2023-02-28T07:56:56;3.30;99.90
11540;DHT22;5826;54.756;9.192;2023-02-28T07:59:21;3.40;99.90
11540;DHT22;5826;54.756;9.192;2023-02-28T08:01:47;3.50;99.90
11540;DHT22;5826;54.756;9.192;2023-02-28T08:04:16;3.50;99.90
11540;DHT22;5826;54.756;9.192;2023-02-28T08:06:41;3.60;99.90
11540;DHT22;5826;54.756;9.192;2023-02-28T08:09:07;3.60;99.90
11540;DHT22;5826;54.756;9.192;2023-02-28T08:11:32;3.50;99.90
11540;DHT22;5826;54.756;9.192;2023-02-28T08:13:58;3.50;99.90
11540;DHT22;5826;54.756;9.192;2023-02-28T08:16:23;3.90;99.90
11540;DHT22;5826;54.756;9.192;2023-02-28T08:18:50;3.60;99.90
11540;DHT22;5826;54.756;9.192;2023-02-28T08:21:16;3.60;99.90
11540;DHT22;5826;54.756;9.192;2023-02-28T08:23:42;3.70;99.90
11540;DHT22;5826;54.756;9.192;2023-02-28T08:26:07;3.70;99.90
11540;DHT22;5826;54.756;9.192;2023-02-28T08:28:33;4.30;99.90
11540;DHT22;5826;54.756;9.192;2023-02-28T08:30:58;3.80;99.90
11540;DHT22;5826;54.756;9.192;2023-02-28T08:33:25;3.90;99.90
11540;DHT22;5826;54.756;9.192;2023-02-28T08:35:55;3.90;99.90
11540;DHT22;5826;54.756;9.192;2023-02-28T08:38:21;4.30;99.90
11540;DHT22;5826;54.756;9.192;2023-02-28T08:40:47;4.00;99.90
11540;DHT22;5826;54.756;9.192;2023-02-28T08:43:12;4.10;99.90
11540;DHT22;5826;54.756;9.192;2023-02-28T08:45:38;4.10;99.90
11540;DHT22;5826;54.756;9.192;2023-02-28T08:48:03;4.20;99.90
11540;DHT22;5826;54.756;9.192;2023-02-28T08:50:29;4.30;99.90
11540;DHT22;5826;54.756;9.192;2023-02-28T08:52:54;4.30;99.90
11540;DHT22;5826;54.756;9.192;2023-02-28T08:55:20;4.40;99.90
11540;DHT22;5826;54.756;9.192;2023-02-28T08:57:45;4.50;99.90
11540;DHT22;5826;54.756;9.192;2023-02-28T09:00:12;4.60;99.90
11540;DHT22;5826;54.756;9.192;2023-02-28T09:02:39;4.80;99.90
11540;DHT22;5826;54.756;9.192;2023-02-28T09:05:05;4.80;99.90
11540;DHT22;5826;54.756;9.192;2023-02-28T09:07:31;4.90;99.90
11540;DHT22;5826;54.756;9.192;2023-02-28T09:09:56;4.90;99.90
11540;DHT22;5826;54.756;9.192;2023-02-28T09:12:27;4.90;99.90
11540;DHT22;5826;54.756;9.192;2023-02-28T09:14:53;4.90;99.90
11540;DHT22;5826;54.756;9.192;2023-02-28T09:17:19;5.00;99.90
11540;DHT22;5826;54.756;9.192;2023-02-28T09:19:47;5.00;99.90
11540;DHT22;5826;54.756;9.192;2023-02-28T09:22:13;5.00;99.90
11540;DHT22;5826;54.756;9.192;2023-02-28T09:24:38;5.10;99.90
11540;DHT22;5826;54.756;9.192;2023-02-28T09:27:05;5.20;99.90
11540;DHT22;5826;54.756;9.192;2023-02-28T09:29:32;5.40;99.90
11540;DHT22;5826;54.756;9.192;2023-02-28T09:31:57;5.50;99.90
11540;DHT22;5826;54.756;9.192;2023-02-28T09:34:24;5.60;99.90
11540;DHT22;5826;54.756;9.192;2023-02-28T09:36:50;5.80;99.90
11540;DHT22;5826;54.756;9.192;2023-02-28T09:39:21;5.80;99.90
11540;DHT22;5826;54.756;9.192;2023-02-28T09:41:50;5.90;99.90
11540;DHT22;5826;54.756;9.192;2023-02-28T09:44:26;6.00;99.90
11540;DHT22;5826;54.756;9.192;2023-02-28T09:47:01;6.00;99.90
11540;DHT22;5826;54.756;9.192;2023-02-28T09:49:33;6.20;99.90
11540;DHT22;5826;54.756;9.192;2023-02-28T09:52:05;6.20;99.90
11540;DHT22;5826;54.756;9.192;2023-02-28T09:54:34;6.30;99.90
11540;DHT22;5826;54.756;9.192;2023-02-28T10:02:21;6.70;99.90
11540;DHT22;5826;54.756;9.192;2023-02-28T10:04:56;6.70;99.90
11540;DHT22;5826;54.756;9.192;2023-02-28T10:10:24;6.90;99.90
11540;DHT22;5826;54.756;9.192;2023-02-28T10:12:54;6.90;99.90
11540;DHT22;5826;54.756;9.192;2023-02-28T10:15:23;6.90;99.90
11540;DHT22;5826;54.756;9.192;2023-02-28T10:17:54;7.00;99.90
11540;DHT22;5826;54.756;9.192;2023-02-28T10:20:23;7.20;99.90
11540;DHT22;5826;54.756;9.192;2023-02-28T10:23:08;7.20;99.90
11540;DHT22;5826;54.756;9.192;2023-02-28T10:25:37;7.30;99.90
11540;DHT22;5826;54.756;9.192;2023-02-28T10:28:15;7.30;99.90
11540;DHT22;5826;54.756;9.192;2023-02-28T10:30:49;7.50;99.90
11540;DHT22;5826;54.756;9.192;2023-02-28T10:33:30;7.60;99.90
11540;DHT22;5826;54.756;9.192;2023-02-28T10:35:57;7.70;99.90
11540;DHT22;5826;54.756;9.192;2023-02-28T10:38:35;7.80;99.90
11540;DHT22;5826;54.756;9.192;2023-02-28T10:41:09;7.90;99.90
11540;DHT22;5826;54.756;9.192;2023-02-28T10:43:36;7.90;99.90
11540;DHT22;5826;54.756;9.192;2023-02-28T10:48:41;8.00;99.90
11540;DHT22;5826;54.756;9.192;2023-02-28T10:51:16;8.10;99.90
11540;DHT22;5826;54.756;9.192;2023-02-28T10:58:54;8.30;99.90
11540;DHT22;5826;54.756;9.192;2023-02-28T11:01:33;8.40;99.90
11540;DHT22;5826;54.756;9.192;2023-02-28T11:04:00;8.50;99.90
11540;DHT22;5826;54.756;9.192;2023-02-28T11:06:29;8.60;99.90
11540;DHT22;5826;54.756;9.192;2023-02-28T11:09:03;8.70;99.90
11540;DHT22;5826;54.756;9.192;2023-02-28T11:11:30;8.70;99.90
11540;DHT22;5826;54.756;9.192;2023-02-28T11:14:14;8.80;99.90
11540;DHT22;5826;54.756;9.192;2023-02-28T11:16:42;8.80;99.90
11540;DHT22;5826;54.756;9.192;2023-02-28T11:19:20;8.80;99.90
11540;DHT22;5826;54.756;9.192;2023-02-28T11:22:08;8.80;99.90
11540;DHT22;5826;54.756;9.192;2023-02-28T11:24:40;8.90;99.90
11540;DHT22;5826;54.756;9.192;2023-02-28T11:27:05;9.00;99.90
11540;DHT22;5826;54.756;9.192;2023-02-28T11:29:33;9.00;99.90
11540;DHT22;5826;54.756;9.192;2023-02-28T11:32:32;9.10;99.90
11540;DHT22;5826;54.756;9.192;2023-02-28T11:37:30;9.20;99.90
11540;DHT22;5826;54.756;9.192;2023-02-28T11:39:56;9.20;99.90
11540;DHT22;5826;54.756;9.192;2023-02-28T11:45:42;9.30;99.90
11540;DHT22;5826;54.756;9.192;2023-02-28T11:48:36;9.40;99.90
11540;DHT22;5826;54.756;9.192;2023-02-28T11:51:10;9.30;99.90
11540;DHT22;5826;54.756;9.192;2023-02-28T11:53:59;9.30;99.90
11540;DHT22;5826;54.756;9.192;2023-02-28T12:02:17;9.40;99.90
11540;DHT22;5826;54.756;9.192;2023-02-28T12:10:28;9.20;99.90
11540;DHT22;5826;54.756;9.192;2023-02-28T12:13:18;9.40;99.90
11540;DHT22;5826;54.756;9.192;2023-02-28T12:15:49;9.60;99.90
11540;DHT22;5826;54.756;9.192;2023-02-28T12:18:40;9.80;99.90
11540;DHT22;5826;54.756;9.192;2023-02-28T12:24:04;10.20;99.90
11540;DHT22;5826;54.756;9.192;2023-02-28T12:29:16;10.40;99.90
11540;DHT22;5826;54.756;9.192;2023-02-28T12:31:49;10.60;99.90
11540;DHT22;5826;54.756;9.192;2023-02-28T12:34:20;10.70;99.90
11540;DHT22;5826;54.756;9.192;2023-02-28T12:36:47;10.80;99.90
11540;DHT22;5826;54.756;9.192;2023-02-28T12:39:19;11.00;99.90
11540;DHT22;5826;54.756;9.192;2023-02-28T12:41:56;11.20;99.90
11540;DHT22;5826;54.756;9.192;2023-02-28T12:44:32;11.30;99.90
11540;DHT22;5826;54.756;9.192;2023-02-28T12:47:05;11.40;99.90
11540;DHT22;5826;54.756;9.192;2023-02-28T12:49:38;11.50;99.90
11540;DHT22;5826;54.756;9.192;2023-02-28T12:52:04;11.70;99.90
11540;DHT22;5826;54.756;9.192;2023-02-28T12:54:40;12.10;99.90
11540;DHT22;5826;54.756;9.192;2023-02-28T12:59:49;12.00;99.90
11540;DHT22;5826;54.756;9.192;2023-02-28T13:03:37;11.90;99.90
11540;DHT22;5826;54.756;9.192;2023-02-28T13:08:45;11.80;99.90
11540;DHT22;5826;54.756;9.192;2023-02-28T13:11:24;11.70;99.90
11540;DHT22;5826;54.756;9.192;2023-02-28T13:14:01;12.00;99.90
11540;DHT22;5826;54.756;9.192;2023-02-28T13:16:27;12.40;99.90
11540;DHT22;5826;54.756;9.192;2023-02-28T13:19:08;13.00;99.90
11540;DHT22;5826;54.756;9.192;2023-02-28T13:21:42;13.40;99.90
11540;DHT22;5826;54.756;9.192;2023-02-28T13:24:09;13.30;99.90
11540;DHT22;5826;54.756;9.192;2023-02-28T13:29:21;13.70;99.90
11540;DHT22;5826;54.756;9.192;2023-02-28T13:39:54;16.40;99.90
11540;DHT22;5826;54.756;9.192;2023-02-28T13:42:36;18.70;99.90
11540;DHT22;5826;54.756;9.192;2023-02-28T13:47:45;22.80;99.90
11540;DHT22;5826;54.756;9.192;2023-02-28T13:55:19;24.10;99.90
11540;DHT22;5826;54.756;9.192;2023-02-28T13:58:28;22.60;99.90
11540;DHT22;5826;54.756;9.192;2023-02-28T14:01:29;20.40;99.90
11540;DHT22;5826;54.756;9.192;2023-02-28T14:06:52;19.50;99.90
11540;DHT22;5826;54.756;9.192;2023-02-28T14:09:41;20.10;99.90
11540;DHT22;5826;54.756;9.192;2023-02-28T14:17:59;22.40;99.90
11540;DHT22;5826;54.756;9.192;2023-02-28T14:20:31;23.00;99.90
11540;DHT22;5826;54.756;9.192;2023-02-28T14:23:14;23.90;99.90
11540;DHT22;5826;54.756;9.192;2023-02-28T14:28:43;26.40;99.90
11540;DHT22;5826;54.756;9.192;2023-02-28T14:31:25;27.70;99.60
11540;DHT22;5826;54.756;9.192;2023-02-28T14:36:40;30.30;95.10
11540;DHT22;5826;54.756;9.192;2023-02-28T14:39:16;31.20;95.80
11540;DHT22;5826;54.756;9.192;2023-02-28T14:41:43;31.50;93.10
11540;DHT22;5826;54.756;9.192;2023-02-28T14:44:25;30.60;93.90
11540;DHT22;5826;54.756;9.192;2023-02-28T14:47:00;29.20;93.20
11540;DHT22;5826;54.756;9.192;2023-02-28T14:49:34;29.30;94.90
11540;DHT22;5826;54.756;9.192;2023-02-28T14:54:35;29.40;94.20
11540;DHT22;5826;54.756;9.192;2023-02-28T14:57:01;29.40;94.60
11540;DHT22;5826;54.756;9.192;2023-02-28T14:59:32;28.10;94.50
11540;DHT22;5826;54.756;9.192;2023-02-28T15:02:15;25.50;95.80
11540;DHT22;5826;54.756;9.192;2023-02-28T15:04:41;23.30;96.80
11540;DHT22;5826;54.756;9.192;2023-02-28T15:07:14;23.30;98.50
11540;DHT22;5826;54.756;9.192;2023-02-28T15:09:40;24.60;97.90
11540;DHT22;5826;54.756;9.192;2023-02-28T15:12:06;25.50;96.70
11540;DHT22;5826;54.756;9.192;2023-02-28T15:14:34;24.60;97.00
11540;DHT22;5826;54.756;9.192;2023-02-28T15:17:07;24.50;98.10
11540;DHT22;5826;54.756;9.192;2023-02-28T15:19:36;25.60;97.30
11540;DHT22;5826;54.756;9.192;2023-02-28T15:22:12;27.10;96.00
11540;DHT22;5826;54.756;9.192;2023-02-28T15:24:46;28.30;96.10
11540;DHT22;5826;54.756;9.192;2023-02-28T15:27:34;28.80;94.50
11540;DHT22;5826;54.756;9.192;2023-02-28T15:30:08;29.30;91.20
11540;DHT22;5826;54.756;9.192;2023-02-28T15:32:39;29.20;94.30
11540;DHT22;5826;54.756;9.192;2023-02-28T15:35:27;29.20;94.60
11540;DHT22;5826;54.756;9.192;2023-02-28T15:38:11;29.20;93.40
11540;DHT22;5826;54.756;9.192;2023-02-28T15:40:42;29.10;94.80
11540;DHT22;5826;54.756;9.192;2023-02-28T15:43:15;28.90;92.40
11540;DHT22;5826;54.756;9.192;2023-02-28T15:45:55;28.40;94.80
11540;DHT22;5826;54.756;9.192;2023-02-28T15:48:30;28.30;94.40
11540;DHT22;5826;54.756;9.192;2023-02-28T15:51:43;28.50;95.40
11540;DHT22;5826;54.756;9.192;2023-02-28T15:53:54;28.40;94.00
11540;DHT22;5826;54.756;9.192;2023-02-28T15:56:26;28.00;93.90
11540;DHT22;5826;54.756;9.192;2023-02-28T15:58:56;27.40;96.40
11540;DHT22;5826;54.756;9.192;2023-02-28T16:01:28;27.10;96.90
11540;DHT22;5826;54.756;9.192;2023-02-28T16:03:57;26.90;96.40
11540;DHT22;5826;54.756;9.192;2023-02-28T16:08:48;25.50;97.30
11540;DHT22;5826;54.756;9.192;2023-02-28T16:11:16;23.70;97.90
11540;DHT22;5826;54.756;9.192;2023-02-28T16:13:42;21.50;98.50
11540;DHT22;5826;54.756;9.192;2023-02-28T16:16:08;19.70;99.90
11540;DHT22;5826;54.756;9.192;2023-02-28T16:18:33;18.00;99.90
11540;DHT22;5826;54.756;9.192;2023-02-28T16:20:59;16.60;99.90
11540;DHT22;5826;54.756;9.192;2023-02-28T16:23:24;15.40;99.90
11540;DHT22;5826;54.756;9.192;2023-02-28T16:25:50;14.30;99.90
11540;DHT22;5826;54.756;9.192;2023-02-28T16:30:44;12.90;99.90
11540;DHT22;5826;54.756;9.192;2023-02-28T16:33:10;12.30;99.90
11540;DHT22;5826;54.756;9.192;2023-02-28T16:35:35;11.90;99.90
11540;DHT22;5826;54.756;9.192;2023-02-28T16:38:01;11.50;99.90
11540;DHT22;5826;54.756;9.192;2023-02-28T16:40:27;11.20;99.90
11540;DHT22;5826;54.756;9.192;2023-02-28T16:42:57;10.90;99.90
11540;DHT22;5826;54.756;9.192;2023-02-28T16:45:26;10.70;99.90
11540;DHT22;5826;54.756;9.192;2023-02-28T16:47:52;10.40;99.90
11540;DHT22;5826;54.756;9.192;2023-02-28T16:50:23;10.20;99.90
11540;DHT22;5826;54.756;9.192;2023-02-28T16:52:49;10.00;99.90
11540;DHT22;5826;54.756;9.192;2023-02-28T16:55:18;9.90;99.90
11540;DHT22;5826;54.756;9.192;2023-02-28T16:57:52;9.70;99.90
11540;DHT22;5826;54.756;9.192;2023-02-28T17:00:18;9.50;99.90
11540;DHT22;5826;54.756;9.192;2023-02-28T17:02:44;9.30;99.90
11540;DHT22;5826;54.756;9.192;2023-02-28T17:05:11;9.20;99.90
11540;DHT22;5826;54.756;9.192;2023-02-28T17:07:38;9.00;99.90
11540;DHT22;5826;54.756;9.192;2023-02-28T17:10:16;8.90;99.90
11540;DHT22;5826;54.756;9.192;2023-02-28T17:12:43;8.80;99.90
11540;DHT22;5826;54.756;9.192;2023-02-28T17:15:10;8.70;99.90
11540;DHT22;5826;54.756;9.192;2023-02-28T17:17:36;8.60;99.90
11540;DHT22;5826;54.756;9.192;2023-02-28T17:20:03;8.50;99.90
11540;DHT22;5826;54.756;9.192;2023-02-28T17:22:29;8.50;99.90
11540;DHT22;5826;54.756;9.192;2023-02-28T17:24:54;8.40;99.90
11540;DHT22;5826;54.756;9.192;2023-02-28T17:27:24;8.20;99.90
11540;DHT22;5826;54.756;9.192;2023-02-28T17:29:50;8.20;99.90
11540;DHT22;5826;54.756;9.192;2023-02-28T17:32:15;8.10;99.90
11540;DHT22;5826;54.756;9.192;2023-02-28T17:34:41;8.00;99.90
11540;DHT22;5826;54.756;9.192;2023-02-28T17:37:08;7.90;99.90
11540;DHT22;5826;54.756;9.192;2023-02-28T17:39:34;7.80;99.90
11540;DHT22;5826;54.756;9.192;2023-02-28T17:41:59;7.70;99.90
11540;DHT22;5826;54.756;9.192;2023-02-28T17:44:25;7.60;99.90
11540;DHT22;5826;54.756;9.192;2023-02-28T17:46:51;7.60;99.90
11540;DHT22;5826;54.756;9.192;2023-02-28T17:49:17;7.50;99.90
11540;DHT22;5826;54.756;9.192;2023-02-28T17:51:43;7.50;99.90
11540;DHT22;5826;54.756;9.192;2023-02-28T17:54:09;7.40;99.90
11540;DHT22;5826;54.756;9.192;2023-02-28T17:56:34;7.40;99.90
11540;DHT22;5826;54.756;9.192;2023-02-28T17:59:00;7.30;99.90
11540;DHT22;5826;54.756;9.192;2023-02-28T18:01:26;7.30;99.90
11540;DHT22;5826;54.756;9.192;2023-02-28T18:03:52;7.20;99.90
11540;DHT22;5826;54.756;9.192;2023-02-28T18:06:23;7.20;99.90
11540;DHT22;5826;54.756;9.192;2023-02-28T18:08:50;7.10;99.90
11540;DHT22;5826;54.756;9.192;2023-02-28T18:11:22;7.10;99.90